^^
Station Historical Data
Daily Summary for July 21, 2017 Units:  English    Metric   Both
« Previous Day
Next Day »
Daily Weekly Monthly Yearly Custom
  High: Low: Average:
Temperature: 89.9 °F 72.7 °F 81 °F
Dew Point: 70.9 °F 67.3 °F 69.3 °F
Humidity: 89% 49% 69%
Wind Speed: 7.0mph 0.0mph 1.1mph
Wind Gust: 12.0mph - -
Wind- - SW
Pressure: 29.92 in 29.84 in -
Precipitation: 0.00 in    
Historical Graphs
 
 
Tabular Data for July 21, 2017
Time Temperature Dew Point Pressure Wind Wind Speed Wind Gust Humidity Rainfall Rate (Hourly) Conditions
00:00 75.0 °F 69.1 °F 29.88 in SE 1.0 mph 2.0 mph 82% 0.00 in CLR
00:15 74.8 °F 68.9 °F 29.88 in Calm   1.0 mph 82% 0.00 in CLR
00:30 75.1 °F 68.9 °F 29.88 in South 1.0 mph 3.0 mph 81% 0.00 in CLR
00:45 75.4 °F 68.8 °F 29.88 in SW 1.0 mph 3.0 mph 80% 0.00 in CLR
01:00 75.6 °F 68.6 °F 29.88 in Calm   4.0 mph 79% 0.00 in CLR
01:15 75.7 °F 68.7 °F 29.89 in Calm   2.0 mph 79% 0.00 in CLR
01:30 75.6 °F 69.0 °F 29.89 in Calm   2.0 mph 80% 0.00 in CLR
01:45 75.5 °F 68.9 °F 29.89 in Calm   5.0 mph 80% 0.00 in CLR
02:00 75.4 °F 68.8 °F 29.88 in Calm   2.0 mph 80% 0.00 in CLR
02:15 75.2 °F 69.0 °F 29.88 in Calm   1.0 mph 81% 0.00 in FEW
02:30 74.9 °F 68.7 °F 29.88 in Calm   3.0 mph 81% 0.00 in FEW
02:45 74.7 °F 69.2 °F 29.88 in Calm   1.0 mph 83% 0.00 in FEW
03:00 74.3 °F 69.1 °F 29.87 in Calm   1.0 mph 84% 0.00 in FEW
03:15 74.1 °F 69.0 °F 29.87 in Calm   1.0 mph 84% 0.00 in FEW
03:30 74.2 °F 69.4 °F 29.87 in Calm   1.0 mph 85% 0.00 in FEW
03:45 73.8 °F 69.3 °F 29.87 in Calm     86% 0.00 in FEW
04:00 73.5 °F 69.4 °F 29.87 in Calm     87% 0.00 in FEW
04:15 73.3 °F 69.5 °F 29.87 in Calm     88% 0.00 in FEW
04:30 73.2 °F 69.1 °F 29.88 in Calm   1.0 mph 87% 0.00 in FEW
04:45 73.3 °F 69.2 °F 29.88 in Calm   1.0 mph 87% 0.00 in FEW
05:00 73.3 °F 68.9 °F 29.88 in Calm   2.0 mph 86% 0.00 in FEW
05:15 74.0 °F 68.8 °F 29.88 in NW 1.0 mph 3.0 mph 84% 0.00 in FEW
05:30 74.1 °F 68.6 °F 29.88 in Calm   2.0 mph 83% 0.00 in FEW
05:45 73.7 °F 68.6 °F 29.88 in Calm     84% 0.00 in FEW
06:00 73.2 °F 68.4 °F 29.88 in Calm     85% 0.00 in FEW
06:15 72.9 °F 68.8 °F 29.88 in Calm   1.0 mph 87% 0.00 in FEW
06:30 72.7 °F 69.3 °F 29.89 in Calm   2.0 mph 89% 0.00 in FEW
06:45 72.7 °F 69.3 °F 29.89 in Calm   2.0 mph 89% 0.00 in FEW
07:00 72.7 °F 69.3 °F 29.90 in Calm   2.0 mph 89% 0.00 in FEW
07:15 73.1 °F 69.7 °F 29.90 in South 1.0 mph 4.0 mph 89% 0.00 in FEW
07:30 74.3 °F 69.8 °F 29.90 in SW 1.0 mph 6.0 mph 86% 0.00 in FEW
07:45 74.6 °F 69.8 °F 29.91 in SW 1.0 mph 5.0 mph 85% 0.00 in FEW
08:00 76.2 °F 70.3 °F 29.91 in Calm   5.0 mph 82% 0.00 in FEW
08:15 76.7 °F 70.1 °F 29.91 in South 2.0 mph 7.0 mph 80% 0.00 in FEW
08:30 77.2 °F 70.2 °F 29.92 in SSE 1.0 mph 7.0 mph 79% 0.00 in FEW
08:45 78.2 °F 70.4 °F 29.92 in SSW 2.0 mph 8.0 mph 77% 0.00 in FEW
09:00 79.0 °F 70.0 °F 29.91 in NW 1.0 mph 8.0 mph 74% 0.00 in FEW
09:15 79.5 °F 69.7 °F 29.92 in WSW 1.0 mph 6.0 mph 72% 0.00 in FEW
09:30 80.1 °F 69.8 °F 29.92 in West 1.0 mph 6.0 mph 71% 0.00 in FEW
09:45 80.8 °F 69.6 °F 29.92 in WNW 1.0 mph 6.0 mph 69% 0.00 in FEW
10:00 81.9 °F 69.9 °F 29.92 in NNE 1.0 mph 6.0 mph 67% 0.00 in FEW
10:15 82.2 °F 69.8 °F 29.92 in North 1.0 mph 7.0 mph 66% 0.00 in FEW
10:30 82.5 °F 69.1 °F 29.92 in NW 1.0 mph 7.0 mph 64% 0.00 in FEW
10:45 82.2 °F 69.7 °F 29.91 in NW 1.0 mph 8.0 mph 66% 0.00 in FEW
11:00 82.3 °F 68.9 °F 29.91 in North 3.0 mph 8.0 mph 64% 0.00 in FEW
11:15 83.3 °F 69.8 °F 29.91 in Calm   6.0 mph 64% 0.00 in FEW
11:30 83.6 °F 69.7 °F 29.90 in Calm   7.0 mph 63% 0.00 in FEW
11:45 84.5 °F 69.0 °F 29.90 in SW 2.0 mph 7.0 mph 60% 0.00 in FEW
12:00 84.8 °F 69.8 °F 29.90 in Calm   6.0 mph 61% 0.00 in FEW
12:15 85.5 °F 69.0 °F 29.90 in NW 2.0 mph 7.0 mph 58% 0.00 in FEW
12:30 85.7 °F 69.7 °F 29.90 in WSW 1.0 mph 7.0 mph 59% 0.00 in FEW
12:45 85.8 °F 68.8 °F 29.90 in Calm   8.0 mph 57% 0.00 in FEW
13:15 87.0 °F 68.8 °F 29.89 in SW 1.0 mph 6.0 mph 55% 0.00 in FEW
13:30 86.5 °F 68.4 °F 29.88 in Calm   7.0 mph 55% 0.00 in FEW
13:45 87.4 °F 69.2 °F 29.88 in WSW 2.0 mph 5.0 mph 55% 0.00 in FEW
14:00 87.2 °F 68.5 °F 29.88 in WSW 1.0 mph 5.0 mph 54% 0.00 in FEW
14:15 88.1 °F 67.7 °F 29.88 in NNW 2.0 mph 4.0 mph 51% 0.00 in FEW
14:30 88.8 °F 68.3 °F 29.87 in SW 1.0 mph 7.0 mph 51% 0.00 in FEW
14:45 88.4 °F 68.5 °F 29.87 in SW 3.0 mph 9.0 mph 52% 0.00 in FEW
15:00 87.9 °F 68.6 °F 29.87 in SSW 2.0 mph 9.0 mph 53% 0.00 in FEW
15:15 88.2 °F 67.3 °F 29.87 in West 3.0 mph 12.0 mph 50% 0.00 in FEW
15:30 89.1 °F 67.5 °F 29.87 in SSW 2.0 mph 8.0 mph 49% 0.00 in FEW
15:45 89.9 °F 68.2 °F 29.87 in South 2.0 mph 6.0 mph 49% 0.00 in FEW
16:00 88.8 °F 67.8 °F 29.86 in SSW 3.0 mph 10.0 mph 50% 0.00 in FEW
16:15 89.2 °F 69.3 °F 29.86 in SW 1.0 mph 9.0 mph 52% 0.00 in FEW
16:30 89.3 °F 67.6 °F 29.86 in SSW 3.0 mph 10.0 mph 49% 0.00 in FEW
16:45 89.6 °F 68.5 °F 29.86 in WSW 6.0 mph 10.0 mph 50% 0.00 in FEW
17:00 89.1 °F 69.2 °F 29.86 in SW 3.0 mph 12.0 mph 52% 0.00 in FEW
17:15 88.9 °F 68.4 °F 29.85 in SW 3.0 mph 10.0 mph 51% 0.00 in FEW
17:30 88.8 °F 67.8 °F 29.85 in SW 7.0 mph 12.0 mph 50% 0.00 in FEW
17:45 89.2 °F 68.7 °F 29.85 in SW 3.0 mph 8.0 mph 51% 0.00 in FEW
18:00 88.6 °F 68.2 °F 29.85 in WSW 5.0 mph 12.0 mph 51% 0.00 in FEW
18:15 87.9 °F 68.6 °F 29.85 in WSW 2.0 mph 8.0 mph 53% 0.00 in FEW
18:30 87.5 °F 69.3 °F 29.85 in SW 2.0 mph 7.0 mph 55% 0.00 in FEW
18:45 88.7 °F 69.9 °F 29.85 in SW 3.0 mph 5.0 mph 54% 0.00 in FEW
19:00 87.6 °F 70.4 °F 29.85 in SSW 1.0 mph 8.0 mph 57% 0.00 in FEW
19:15 86.5 °F 70.0 °F 29.85 in SW 2.0 mph 7.0 mph 58% 0.00 in FEW
19:30 85.7 °F 70.2 °F 29.85 in SW 3.0 mph 7.0 mph 60% 0.00 in FEW
19:45 85.1 °F 70.6 °F 29.85 in SW 2.0 mph 6.0 mph 62% 0.00 in FEW
20:00 84.5 °F 70.5 °F 29.85 in Calm   8.0 mph 63% 0.00 in FEW
20:15 84.0 °F 70.5 °F 29.85 in SSW 2.0 mph 5.0 mph 64% 0.00 in FEW
20:30 83.6 °F 70.6 °F 29.84 in Calm   4.0 mph 65% 0.00 in FEW
20:45 83.3 °F 70.7 °F 29.84 in Calm   5.0 mph 66% 0.00 in FEW
21:15 81.9 °F 70.7 °F 29.85 in Calm   1.0 mph 69% 0.00 in FEW
21:30 81.6 °F 70.4 °F 29.86 in Calm   2.0 mph 69% 0.00 in FEW
21:45 81.6 °F 70.4 °F 29.86 in SSW 1.0 mph 2.0 mph 69% 0.00 in FEW
22:00 81.6 °F 70.4 °F 29.87 in Calm   3.0 mph 69% 0.00 in FEW
22:15 81.6 °F 70.0 °F 29.86 in Calm   4.0 mph 68% 0.00 in CLR
22:30 81.4 °F 70.2 °F 29.86 in Calm   4.0 mph 69% 0.00 in CLR
22:45 81.1 °F 70.0 °F 29.86 in Calm   2.0 mph 69% 0.00 in CLR
23:00 80.8 °F 70.1 °F 29.87 in Calm   3.0 mph 70% 0.00 in CLR
23:15 80.5 °F 70.2 °F 29.87 in Calm   3.0 mph 71% 0.00 in CLR
23:30 80.1 °F 70.7 °F 29.87 in SSW 1.0 mph 2.0 mph 73% 0.00 in CLR
23:45 79.9 °F 70.9 °F 29.87 in Calm   2.0 mph 74% 0.00 in CLR
TarryTown NY Weather
Compliments of Weather Underground - 1.5 mb